sensor_id;sensor_type;location;lat;lon;timestamp;temperature;humidity
51661;DHT22;37741;49.748;8.490;2022-09-01T00:01:55;21.30;55.80
51661;DHT22;37741;49.748;8.490;2022-09-01T00:04:22;21.30;55.90
51661;DHT22;37741;49.748;8.490;2022-09-01T00:06:50;21.30;55.90
51661;DHT22;37741;49.748;8.490;2022-09-01T00:09:16;21.30;56.00
51661;DHT22;37741;49.748;8.490;2022-09-01T00:11:43;21.20;56.00
51661;DHT22;37741;49.748;8.490;2022-09-01T00:14:09;21.20;56.00
51661;DHT22;37741;49.748;8.490;2022-09-01T00:16:35;21.20;56.10
51661;DHT22;37741;49.748;8.490;2022-09-01T00:19:01;21.20;56.20
51661;DHT22;37741;49.748;8.490;2022-09-01T00:21:29;21.10;56.30
51661;DHT22;37741;49.748;8.490;2022-09-01T00:23:55;21.10;56.40
51661;DHT22;37741;49.748;8.490;2022-09-01T00:26:21;21.10;56.40
51661;DHT22;37741;49.748;8.490;2022-09-01T00:28:46;21.00;56.50
51661;DHT22;37741;49.748;8.490;2022-09-01T00:31:13;21.00;56.50
51661;DHT22;37741;49.748;8.490;2022-09-01T00:33:43;21.00;56.50
51661;DHT22;37741;49.748;8.490;2022-09-01T00:36:08;21.00;56.60
51661;DHT22;37741;49.748;8.490;2022-09-01T00:38:34;21.00;56.60
51661;DHT22;37741;49.748;8.490;2022-09-01T00:40:59;21.00;56.60
51661;DHT22;37741;49.748;8.490;2022-09-01T00:46:04;20.90;56.60
51661;DHT22;37741;49.748;8.490;2022-09-01T00:48:30;20.90;56.60
51661;DHT22;37741;49.748;8.490;2022-09-01T00:50:56;21.00;56.70
51661;DHT22;37741;49.748;8.490;2022-09-01T00:53:22;20.90;56.90
51661;DHT22;37741;49.748;8.490;2022-09-01T00:55:47;20.90;56.70
51661;DHT22;37741;49.748;8.490;2022-09-01T00:58:13;20.90;56.70
51661;DHT22;37741;49.748;8.490;2022-09-01T01:00:39;20.90;56.70
51661;DHT22;37741;49.748;8.490;2022-09-01T01:03:14;20.80;56.70
51661;DHT22;37741;49.748;8.490;2022-09-01T01:05:41;20.90;56.70
51661;DHT22;37741;49.748;8.490;2022-09-01T01:08:10;20.80;56.70
51661;DHT22;37741;49.748;8.490;2022-09-01T01:10:37;20.80;56.70
51661;DHT22;37741;49.748;8.490;2022-09-01T01:13:07;20.80;56.70
51661;DHT22;37741;49.748;8.490;2022-09-01T01:15:33;20.80;56.80
51661;DHT22;37741;49.748;8.490;2022-09-01T01:17:59;20.80;56.80
51661;DHT22;37741;49.748;8.490;2022-09-01T01:20:25;20.70;56.80
51661;DHT22;37741;49.748;8.490;2022-09-01T01:23:15;20.70;56.80
51661;DHT22;37741;49.748;8.490;2022-09-01T01:25:45;20.70;56.80
51661;DHT22;37741;49.748;8.490;2022-09-01T01:30:49;20.70;56.90
51661;DHT22;37741;49.748;8.490;2022-09-01T01:33:21;20.60;56.90
51661;DHT22;37741;49.748;8.490;2022-09-01T01:35:47;20.60;56.90
51661;DHT22;37741;49.748;8.490;2022-09-01T01:38:13;20.60;57.00
51661;DHT22;37741;49.748;8.490;2022-09-01T01:40:40;20.60;57.00
51661;DHT22;37741;49.748;8.490;2022-09-01T01:43:05;20.60;57.00
51661;DHT22;37741;49.748;8.490;2022-09-01T01:45:31;20.60;57.10
51661;DHT22;37741;49.748;8.490;2022-09-01T01:47:57;20.50;57.00
51661;DHT22;37741;49.748;8.490;2022-09-01T01:50:24;20.50;57.00
51661;DHT22;37741;49.748;8.490;2022-09-01T01:52:51;20.50;57.10
51661;DHT22;37741;49.748;8.490;2022-09-01T01:55:17;20.40;57.00
51661;DHT22;37741;49.748;8.490;2022-09-01T01:57:46;20.40;57.10
51661;DHT22;37741;49.748;8.490;2022-09-01T02:00:16;20.40;57.20
51661;DHT22;37741;49.748;8.490;2022-09-01T02:02:44;20.30;57.30
51661;DHT22;37741;49.748;8.490;2022-09-01T02:05:13;20.30;57.30
51661;DHT22;37741;49.748;8.490;2022-09-01T02:07:46;20.30;57.40
51661;DHT22;37741;49.748;8.490;2022-09-01T02:10:12;20.20;57.60
51661;DHT22;37741;49.748;8.490;2022-09-01T02:12:38;20.20;57.60
51661;DHT22;37741;49.748;8.490;2022-09-01T02:15:04;20.10;57.60
51661;DHT22;37741;49.748;8.490;2022-09-01T02:17:31;20.10;57.70
51661;DHT22;37741;49.748;8.490;2022-09-01T02:19:57;20.10;57.70
51661;DHT22;37741;49.748;8.490;2022-09-01T02:22:23;20.10;57.80
51661;DHT22;37741;49.748;8.490;2022-09-01T02:24:49;20.00;57.80
51661;DHT22;37741;49.748;8.490;2022-09-01T02:27:17;20.00;57.90
51661;DHT22;37741;49.748;8.490;2022-09-01T02:29:47;20.00;58.00
51661;DHT22;37741;49.748;8.490;2022-09-01T02:32:15;19.90;57.90
51661;DHT22;37741;49.748;8.490;2022-09-01T02:34:49;19.90;57.90
51661;DHT22;37741;49.748;8.490;2022-09-01T02:37:18;19.90;58.10
51661;DHT22;37741;49.748;8.490;2022-09-01T02:39:50;19.80;58.00
51661;DHT22;37741;49.748;8.490;2022-09-01T02:42:16;19.80;58.20
51661;DHT22;37741;49.748;8.490;2022-09-01T02:44:41;19.80;58.10
51661;DHT22;37741;49.748;8.490;2022-09-01T02:47:08;19.80;58.10
51661;DHT22;37741;49.748;8.490;2022-09-01T02:49:34;19.80;58.20
51661;DHT22;37741;49.748;8.490;2022-09-01T02:52:00;19.80;58.20
51661;DHT22;37741;49.748;8.490;2022-09-01T02:54:27;19.70;58.20
51661;DHT22;37741;49.748;8.490;2022-09-01T02:56:55;19.70;58.20
51661;DHT22;37741;49.748;8.490;2022-09-01T02:59:21;19.70;58.30
51661;DHT22;37741;49.748;8.490;2022-09-01T03:01:48;19.70;58.30
51661;DHT22;37741;49.748;8.490;2022-09-01T03:04:14;19.60;58.30
51661;DHT22;37741;49.748;8.490;2022-09-01T03:06:39;19.60;58.30
51661;DHT22;37741;49.748;8.490;2022-09-01T03:09:06;19.60;58.40
51661;DHT22;37741;49.748;8.490;2022-09-01T03:11:33;19.60;58.40
51661;DHT22;37741;49.748;8.490;2022-09-01T03:13:59;19.60;58.50
51661;DHT22;37741;49.748;8.490;2022-09-01T03:16:25;19.50;58.50
51661;DHT22;37741;49.748;8.490;2022-09-01T03:18:50;19.50;58.50
51661;DHT22;37741;49.748;8.490;2022-09-01T03:21:16;19.40;58.50
51661;DHT22;37741;49.748;8.490;2022-09-01T03:23:42;19.40;58.60
51661;DHT22;37741;49.748;8.490;2022-09-01T03:26:08;19.40;58.60
51661;DHT22;37741;49.748;8.490;2022-09-01T03:28:33;19.40;58.70
51661;DHT22;37741;49.748;8.490;2022-09-01T03:30:59;19.30;58.70
51661;DHT22;37741;49.748;8.490;2022-09-01T03:33:25;19.30;58.80
51661;DHT22;37741;49.748;8.490;2022-09-01T03:35:51;19.30;59.40
51661;DHT22;37741;49.748;8.490;2022-09-01T03:38:17;19.30;58.90
51661;DHT22;37741;49.748;8.490;2022-09-01T03:40:48;19.30;58.90
51661;DHT22;37741;49.748;8.490;2022-09-01T03:43:14;19.30;59.00
51661;DHT22;37741;49.748;8.490;2022-09-01T03:45:41;19.20;58.90
51661;DHT22;37741;49.748;8.490;2022-09-01T03:48:08;19.20;59.00
51661;DHT22;37741;49.748;8.490;2022-09-01T03:50:40;19.20;59.00
51661;DHT22;37741;49.748;8.490;2022-09-01T03:53:09;19.20;59.10
51661;DHT22;37741;49.748;8.490;2022-09-01T03:55:35;19.10;59.10
51661;DHT22;37741;49.748;8.490;2022-09-01T03:58:03;19.10;59.10
51661;DHT22;37741;49.748;8.490;2022-09-01T04:00:33;19.10;59.10
51661;DHT22;37741;49.748;8.490;2022-09-01T04:03:01;19.10;59.30
51661;DHT22;37741;49.748;8.490;2022-09-01T04:05:27;19.10;59.30
51661;DHT22;37741;49.748;8.490;2022-09-01T04:07:53;19.10;59.30
51661;DHT22;37741;49.748;8.490;2022-09-01T04:10:19;19.10;59.20
51661;DHT22;37741;49.748;8.490;2022-09-01T04:12:46;19.10;59.20
51661;DHT22;37741;49.748;8.490;2022-09-01T04:15:12;19.10;59.20
51661;DHT22;37741;49.748;8.490;2022-09-01T04:17:38;19.10;59.20
51661;DHT22;37741;49.748;8.490;2022-09-01T04:20:22;19.10;59.10
51661;DHT22;37741;49.748;8.490;2022-09-01T04:22:48;19.10;59.10
51661;DHT22;37741;49.748;8.490;2022-09-01T04:25:15;19.10;59.10
51661;DHT22;37741;49.748;8.490;2022-09-01T04:27:41;19.10;59.10
51661;DHT22;37741;49.748;8.490;2022-09-01T04:30:10;19.10;59.00
51661;DHT22;37741;49.748;8.490;2022-09-01T04:32:36;19.10;59.00
51661;DHT22;37741;49.748;8.490;2022-09-01T04:35:02;19.10;59.00
51661;DHT22;37741;49.748;8.490;2022-09-01T04:37:28;19.10;59.00
51661;DHT22;37741;49.748;8.490;2022-09-01T04:39:54;19.10;59.00
51661;DHT22;37741;49.748;8.490;2022-09-01T04:42:20;19.10;59.00
51661;DHT22;37741;49.748;8.490;2022-09-01T04:44:48;19.10;59.00
51661;DHT22;37741;49.748;8.490;2022-09-01T04:47:14;19.10;59.00
51661;DHT22;37741;49.748;8.490;2022-09-01T04:49:41;19.10;59.00
51661;DHT22;37741;49.748;8.490;2022-09-01T04:52:09;19.10;59.10
51661;DHT22;37741;49.748;8.490;2022-09-01T04:54:36;19.10;59.20
51661;DHT22;37741;49.748;8.490;2022-09-01T04:57:02;19.10;59.20
51661;DHT22;37741;49.748;8.490;2022-09-01T04:59:29;19.10;59.30
51661;DHT22;37741;49.748;8.490;2022-09-01T05:01:55;19.00;59.20
51661;DHT22;37741;49.748;8.490;2022-09-01T05:04:26;19.00;59.10
51661;DHT22;37741;49.748;8.490;2022-09-01T05:06:54;19.00;59.20
51661;DHT22;37741;49.748;8.490;2022-09-01T05:09:22;19.00;59.20
51661;DHT22;37741;49.748;8.490;2022-09-01T05:11:50;19.00;59.30
51661;DHT22;37741;49.748;8.490;2022-09-01T05:14:16;19.00;59.30
51661;DHT22;37741;49.748;8.490;2022-09-01T05:16:45;19.00;59.30
51661;DHT22;37741;49.748;8.490;2022-09-01T05:19:10;19.00;59.40
51661;DHT22;37741;49.748;8.490;2022-09-01T05:21:42;19.00;59.40
51661;DHT22;37741;49.748;8.490;2022-09-01T05:24:14;19.00;59.40
51661;DHT22;37741;49.748;8.490;2022-09-01T05:26:41;19.00;59.50
51661;DHT22;37741;49.748;8.490;2022-09-01T05:29:06;18.90;59.40
51661;DHT22;37741;49.748;8.490;2022-09-01T05:31:34;18.90;59.50
51661;DHT22;37741;49.748;8.490;2022-09-01T05:34:02;18.90;59.50
51661;DHT22;37741;49.748;8.490;2022-09-01T05:36:28;18.90;59.70
51661;DHT22;37741;49.748;8.490;2022-09-01T05:38:58;18.90;59.90
51661;DHT22;37741;49.748;8.490;2022-09-01T05:41:23;18.80;59.90
51661;DHT22;37741;49.748;8.490;2022-09-01T05:43:49;18.80;60.10
51661;DHT22;37741;49.748;8.490;2022-09-01T05:46:18;18.80;60.20
51661;DHT22;37741;49.748;8.490;2022-09-01T05:48:45;18.70;60.20
51661;DHT22;37741;49.748;8.490;2022-09-01T05:51:14;18.70;60.40
51661;DHT22;37741;49.748;8.490;2022-09-01T05:53:42;18.70;60.50
51661;DHT22;37741;49.748;8.490;2022-09-01T05:56:08;18.70;60.70
51661;DHT22;37741;49.748;8.490;2022-09-01T05:58:35;18.70;60.70
51661;DHT22;37741;49.748;8.490;2022-09-01T06:01:02;18.60;60.80
51661;DHT22;37741;49.748;8.490;2022-09-01T06:03:28;18.70;61.00
51661;DHT22;37741;49.748;8.490;2022-09-01T06:05:54;18.60;60.80
51661;DHT22;37741;49.748;8.490;2022-09-01T06:08:21;18.60;60.90
51661;DHT22;37741;49.748;8.490;2022-09-01T06:10:47;18.60;61.00
51661;DHT22;37741;49.748;8.490;2022-09-01T06:13:15;18.60;61.10
51661;DHT22;37741;49.748;8.490;2022-09-01T06:15:42;18.60;61.20
51661;DHT22;37741;49.748;8.490;2022-09-01T06:18:11;18.60;61.30
51661;DHT22;37741;49.748;8.490;2022-09-01T06:20:37;18.60;61.30
51661;DHT22;37741;49.748;8.490;2022-09-01T06:23:04;18.60;61.50
51661;DHT22;37741;49.748;8.490;2022-09-01T06:25:30;18.60;61.50
51661;DHT22;37741;49.748;8.490;2022-09-01T06:27:56;18.60;61.50
51661;DHT22;37741;49.748;8.490;2022-09-01T06:30:22;18.60;62.20
51661;DHT22;37741;49.748;8.490;2022-09-01T06:32:53;18.60;61.70
51661;DHT22;37741;49.748;8.490;2022-09-01T06:35:19;18.50;61.70
51661;DHT22;37741;49.748;8.490;2022-09-01T06:37:45;18.60;61.80
51661;DHT22;37741;49.748;8.490;2022-09-01T06:40:13;18.60;61.80
51661;DHT22;37741;49.748;8.490;2022-09-01T06:42:45;18.60;61.80
51661;DHT22;37741;49.748;8.490;2022-09-01T06:45:12;18.60;61.90
51661;DHT22;37741;49.748;8.490;2022-09-01T06:47:39;18.50;61.90
51661;DHT22;37741;49.748;8.490;2022-09-01T06:50:06;18.50;62.00
51661;DHT22;37741;49.748;8.490;2022-09-01T06:52:32;18.60;62.10
51661;DHT22;37741;49.748;8.490;2022-09-01T06:54:58;18.60;62.10
51661;DHT22;37741;49.748;8.490;2022-09-01T06:57:24;18.50;62.10
51661;DHT22;37741;49.748;8.490;2022-09-01T06:59:52;18.60;62.20
51661;DHT22;37741;49.748;8.490;2022-09-01T07:02:18;18.60;62.20
51661;DHT22;37741;49.748;8.490;2022-09-01T07:04:44;18.60;62.20
51661;DHT22;37741;49.748;8.490;2022-09-01T07:07:10;18.60;62.10
51661;DHT22;37741;49.748;8.490;2022-09-01T07:09:37;18.60;62.30
51661;DHT22;37741;49.748;8.490;2022-09-01T07:12:04;18.60;62.30
51661;DHT22;37741;49.748;8.490;2022-09-01T07:14:30;18.50;62.40
51661;DHT22;37741;49.748;8.490;2022-09-01T07:16:56;18.60;62.50
51661;DHT22;37741;49.748;8.490;2022-09-01T07:19:22;18.60;62.50
51661;DHT22;37741;49.748;8.490;2022-09-01T07:21:50;18.60;62.60
51661;DHT22;37741;49.748;8.490;2022-09-01T07:24:16;18.50;62.40
51661;DHT22;37741;49.748;8.490;2022-09-01T07:26:42;18.60;62.50
51661;DHT22;37741;49.748;8.490;2022-09-01T07:29:08;18.60;62.50
51661;DHT22;37741;49.748;8.490;2022-09-01T07:31:37;18.60;62.50
51661;DHT22;37741;49.748;8.490;2022-09-01T07:34:06;18.60;62.50
51661;DHT22;37741;49.748;8.490;2022-09-01T07:36:40;18.60;62.50
51661;DHT22;37741;49.748;8.490;2022-09-01T07:39:07;18.60;62.50
51661;DHT22;37741;49.748;8.490;2022-09-01T07:41:33;18.60;62.50
51661;DHT22;37741;49.748;8.490;2022-09-01T07:43:59;18.60;62.50
51661;DHT22;37741;49.748;8.490;2022-09-01T07:46:26;18.60;62.50
51661;DHT22;37741;49.748;8.490;2022-09-01T07:48:53;18.60;62.50
51661;DHT22;37741;49.748;8.490;2022-09-01T07:51:20;18.60;62.60
51661;DHT22;37741;49.748;8.490;2022-09-01T07:53:46;18.70;62.70
51661;DHT22;37741;49.748;8.490;2022-09-01T07:56:13;18.70;62.60
51661;DHT22;37741;49.748;8.490;2022-09-01T07:58:39;18.70;62.60
51661;DHT22;37741;49.748;8.490;2022-09-01T08:01:07;18.70;62.70
51661;DHT22;37741;49.748;8.490;2022-09-01T08:03:33;18.70;62.60
51661;DHT22;37741;49.748;8.490;2022-09-01T08:06:05;18.70;62.60
51661;DHT22;37741;49.748;8.490;2022-09-01T08:08:32;18.70;62.60
51661;DHT22;37741;49.748;8.490;2022-09-01T08:10:58;18.70;62.60
51661;DHT22;37741;49.748;8.490;2022-09-01T08:13:23;18.80;62.70
51661;DHT22;37741;49.748;8.490;2022-09-01T08:15:49;18.80;62.60
51661;DHT22;37741;49.748;8.490;2022-09-01T08:18:15;18.80;62.60
51661;DHT22;37741;49.748;8.490;2022-09-01T08:20:41;18.80;62.60
51661;DHT22;37741;49.748;8.490;2022-09-01T08:23:12;18.90;63.30
51661;DHT22;37741;49.748;8.490;2022-09-01T08:25:39;18.90;62.60
51661;DHT22;37741;49.748;8.490;2022-09-01T08:28:06;18.90;62.70
51661;DHT22;37741;49.748;8.490;2022-09-01T08:30:32;19.00;62.70
51661;DHT22;37741;49.748;8.490;2022-09-01T08:32:58;19.10;62.60
51661;DHT22;37741;49.748;8.490;2022-09-01T08:35:24;19.00;62.50
51661;DHT22;37741;49.748;8.490;2022-09-01T08:37:50;19.10;62.50
51661;DHT22;37741;49.748;8.490;2022-09-01T08:40:16;19.10;62.40
51661;DHT22;37741;49.748;8.490;2022-09-01T08:45:30;19.20;62.40
51661;DHT22;37741;49.748;8.490;2022-09-01T08:48:04;19.20;62.40
51661;DHT22;37741;49.748;8.490;2022-09-01T08:50:31;19.30;62.40
51661;DHT22;37741;49.748;8.490;2022-09-01T08:53:16;19.30;62.30
51661;DHT22;37741;49.748;8.490;2022-09-01T08:55:46;19.30;62.30
51661;DHT22;37741;49.748;8.490;2022-09-01T08:58:16;19.30;62.60
51661;DHT22;37741;49.748;8.490;2022-09-01T09:00:43;19.40;62.20
51661;DHT22;37741;49.748;8.490;2022-09-01T09:03:13;19.40;62.30
51661;DHT22;37741;49.748;8.490;2022-09-01T09:05:45;19.40;62.10
51661;DHT22;37741;49.748;8.490;2022-09-01T09:08:16;19.50;62.20
51661;DHT22;37741;49.748;8.490;2022-09-01T09:11:05;19.50;62.10
51661;DHT22;37741;49.748;8.490;2022-09-01T09:21:06;19.60;61.90
51661;DHT22;37741;49.748;8.490;2022-09-01T09:23:34;19.70;61.90
51661;DHT22;37741;49.748;8.490;2022-09-01T09:26:00;19.70;61.90
51661;DHT22;37741;49.748;8.490;2022-09-01T09:28:26;19.70;62.10
51661;DHT22;37741;49.748;8.490;2022-09-01T09:31:23;19.70;62.00
51661;DHT22;37741;49.748;8.490;2022-09-01T09:33:37;19.80;61.60
51661;DHT22;37741;49.748;8.490;2022-09-01T09:36:16;19.80;61.70
51661;DHT22;37741;49.748;8.490;2022-09-01T09:38:43;19.90;61.70
51661;DHT22;37741;49.748;8.490;2022-09-01T09:41:16;19.90;61.30
51661;DHT22;37741;49.748;8.490;2022-09-01T09:43:45;19.90;61.30
51661;DHT22;37741;49.748;8.490;2022-09-01T09:46:25;20.00;61.40
51661;DHT22;37741;49.748;8.490;2022-09-01T09:49:33;19.90;61.40
51661;DHT22;37741;49.748;8.490;2022-09-01T09:51:40;20.00;61.30
51661;DHT22;37741;49.748;8.490;2022-09-01T09:54:10;20.00;61.40
51661;DHT22;37741;49.748;8.490;2022-09-01T09:56:37;20.00;61.50
51661;DHT22;37741;49.748;8.490;2022-09-01T10:04:42;20.00;61.40
51661;DHT22;37741;49.748;8.490;2022-09-01T10:07:23;20.00;61.60
51661;DHT22;37741;49.748;8.490;2022-09-01T10:09:50;20.00;62.10
51661;DHT22;37741;49.748;8.490;2022-09-01T10:12:16;20.10;61.70
51661;DHT22;37741;49.748;8.490;2022-09-01T10:14:56;20.10;61.70
51661;DHT22;37741;49.748;8.490;2022-09-01T10:17:24;20.10;61.50
51661;DHT22;37741;49.748;8.490;2022-09-01T10:19:56;20.10;61.50
51661;DHT22;37741;49.748;8.490;2022-09-01T10:22:22;20.10;61.60
51661;DHT22;37741;49.748;8.490;2022-09-01T10:24:48;20.20;62.20
51661;DHT22;37741;49.748;8.490;2022-09-01T10:27:24;20.20;61.90
51661;DHT22;37741;49.748;8.490;2022-09-01T10:32:20;20.20;61.60
51661;DHT22;37741;49.748;8.490;2022-09-01T10:34:48;20.30;61.60
51661;DHT22;37741;49.748;8.490;2022-09-01T10:37:14;20.30;61.90
51661;DHT22;37741;49.748;8.490;2022-09-01T10:42:25;20.30;61.50
51661;DHT22;37741;49.748;8.490;2022-09-01T10:44:54;20.30;61.50
51661;DHT22;37741;49.748;8.490;2022-09-01T10:47:25;20.40;61.40
51661;DHT22;37741;49.748;8.490;2022-09-01T10:55:05;20.40;61.20
51661;DHT22;37741;49.748;8.490;2022-09-01T11:10:56;20.60;60.60
51661;DHT22;37741;49.748;8.490;2022-09-01T11:13:32;20.60;60.40
51661;DHT22;37741;49.748;8.490;2022-09-01T11:18:44;20.70;60.20
51661;DHT22;37741;49.748;8.490;2022-09-01T11:21:24;20.70;60.00
51661;DHT22;37741;49.748;8.490;2022-09-01T11:23:50;20.70;59.90
51661;DHT22;37741;49.748;8.490;2022-09-01T11:28:59;20.80;59.50
51661;DHT22;37741;49.748;8.490;2022-09-01T11:31:27;20.90;59.50
51661;DHT22;37741;49.748;8.490;2022-09-01T11:36:33;20.90;59.20
51661;DHT22;37741;49.748;8.490;2022-09-01T11:39:06;21.00;59.40
51661;DHT22;37741;49.748;8.490;2022-09-01T11:44:10;21.00;59.00
51661;DHT22;37741;49.748;8.490;2022-09-01T11:46:36;21.00;58.90
51661;DHT22;37741;49.748;8.490;2022-09-01T11:49:17;21.10;58.80
51661;DHT22;37741;49.748;8.490;2022-09-01T11:51:47;21.10;58.70
51661;DHT22;37741;49.748;8.490;2022-09-01T11:54:13;21.10;59.00
51661;DHT22;37741;49.748;8.490;2022-09-01T11:56:39;21.20;59.00
51661;DHT22;37741;49.748;8.490;2022-09-01T11:59:04;21.20;58.70
51661;DHT22;37741;49.748;8.490;2022-09-01T12:01:37;21.30;58.70
51661;DHT22;37741;49.748;8.490;2022-09-01T12:07:06;21.40;59.20
51661;DHT22;37741;49.748;8.490;2022-09-01T12:09:34;21.40;58.50
51661;DHT22;37741;49.748;8.490;2022-09-01T12:11:59;21.50;58.50
51661;DHT22;37741;49.748;8.490;2022-09-01T12:14:25;21.50;58.20
51661;DHT22;37741;49.748;8.490;2022-09-01T12:16:58;21.60;58.00
51661;DHT22;37741;49.748;8.490;2022-09-01T12:19:25;21.60;58.10
51661;DHT22;37741;49.748;8.490;2022-09-01T12:21:57;21.60;57.80
51661;DHT22;37741;49.748;8.490;2022-09-01T12:24:24;21.70;57.70
51661;DHT22;37741;49.748;8.490;2022-09-01T12:26:54;21.70;57.60
51661;DHT22;37741;49.748;8.490;2022-09-01T12:29:23;21.80;57.60
51661;DHT22;37741;49.748;8.490;2022-09-01T12:31:49;21.80;57.30
51661;DHT22;37741;49.748;8.490;2022-09-01T12:39:41;22.00;56.60
51661;DHT22;37741;49.748;8.490;2022-09-01T12:42:28;22.00;56.50
51661;DHT22;37741;49.748;8.490;2022-09-01T12:52:41;22.20;55.70
51661;DHT22;37741;49.748;8.490;2022-09-01T12:55:30;22.30;55.60
51661;DHT22;37741;49.748;8.490;2022-09-01T12:57:55;22.30;55.40
51661;DHT22;37741;49.748;8.490;2022-09-01T13:00:23;22.40;55.40
51661;DHT22;37741;49.748;8.490;2022-09-01T13:02:49;22.40;55.20
51661;DHT22;37741;49.748;8.490;2022-09-01T13:07:42;22.50;54.90
51661;DHT22;37741;49.748;8.490;2022-09-01T13:10:08;22.50;54.80
51661;DHT22;37741;49.748;8.490;2022-09-01T13:12:37;22.60;54.60
51661;DHT22;37741;49.748;8.490;2022-09-01T13:15:05;22.60;54.60
51661;DHT22;37741;49.748;8.490;2022-09-01T13:17:31;22.60;54.30
51661;DHT22;37741;49.748;8.490;2022-09-01T13:19:56;22.70;54.40
51661;DHT22;37741;49.748;8.490;2022-09-01T13:22:22;22.70;54.10
51661;DHT22;37741;49.748;8.490;2022-09-01T13:24:47;22.70;54.10
51661;DHT22;37741;49.748;8.490;2022-09-01T13:27:15;22.80;54.10
51661;DHT22;37741;49.748;8.490;2022-09-01T13:29:40;22.80;54.10
51661;DHT22;37741;49.748;8.490;2022-09-01T13:32:06;22.80;53.80
51661;DHT22;37741;49.748;8.490;2022-09-01T13:34:32;22.90;53.90
51661;DHT22;37741;49.748;8.490;2022-09-01T13:36:57;22.90;53.70
51661;DHT22;37741;49.748;8.490;2022-09-01T13:39:26;22.90;53.70
51661;DHT22;37741;49.748;8.490;2022-09-01T13:41:51;22.90;53.70
51661;DHT22;37741;49.748;8.490;2022-09-01T13:44:20;23.00;53.70
51661;DHT22;37741;49.748;8.490;2022-09-01T13:46:45;23.00;53.50
51661;DHT22;37741;49.748;8.490;2022-09-01T13:49:11;23.00;53.30
51661;DHT22;37741;49.748;8.490;2022-09-01T13:51:37;23.00;53.30
51661;DHT22;37741;49.748;8.490;2022-09-01T13:54:03;23.10;53.20
51661;DHT22;37741;49.748;8.490;2022-09-01T13:56:29;23.10;53.10
51661;DHT22;37741;49.748;8.490;2022-09-01T13:58:54;23.10;53.40
51661;DHT22;37741;49.748;8.490;2022-09-01T14:01:19;23.00;53.20
51661;DHT22;37741;49.748;8.490;2022-09-01T14:03:47;23.10;53.20
51661;DHT22;37741;49.748;8.490;2022-09-01T14:06:14;23.00;53.00
51661;DHT22;37741;49.748;8.490;2022-09-01T14:08:39;23.00;53.00
51661;DHT22;37741;49.748;8.490;2022-09-01T14:11:05;23.10;53.10
51661;DHT22;37741;49.748;8.490;2022-09-01T14:13:31;23.10;53.00
51661;DHT22;37741;49.748;8.490;2022-09-01T14:15:57;23.10;53.70
51661;DHT22;37741;49.748;8.490;2022-09-01T14:18:23;23.10;53.00
51661;DHT22;37741;49.748;8.490;2022-09-01T14:21:01;23.10;53.20
51661;DHT22;37741;49.748;8.490;2022-09-01T14:23:27;23.10;53.00
51661;DHT22;37741;49.748;8.490;2022-09-01T14:25:53;23.10;53.10
51661;DHT22;37741;49.748;8.490;2022-09-01T14:28:19;23.10;53.00
51661;DHT22;37741;49.748;8.490;2022-09-01T14:30:44;23.10;52.90
51661;DHT22;37741;49.748;8.490;2022-09-01T14:33:11;23.10;52.90
51661;DHT22;37741;49.748;8.490;2022-09-01T14:35:41;23.10;53.00
51661;DHT22;37741;49.748;8.490;2022-09-01T14:38:07;23.20;52.90
51661;DHT22;37741;49.748;8.490;2022-09-01T14:40:34;23.20;53.10
51661;DHT22;37741;49.748;8.490;2022-09-01T14:43:02;23.20;53.00
51661;DHT22;37741;49.748;8.490;2022-09-01T14:45:27;23.20;52.80
51661;DHT22;37741;49.748;8.490;2022-09-01T14:47:54;23.20;52.70
51661;DHT22;37741;49.748;8.490;2022-09-01T14:50:20;23.30;52.70
51661;DHT22;37741;49.748;8.490;2022-09-01T14:52:46;23.30;52.60
51661;DHT22;37741;49.748;8.490;2022-09-01T14:55:12;23.30;52.50
51661;DHT22;37741;49.748;8.490;2022-09-01T14:57:38;23.30;52.40
51661;DHT22;37741;49.748;8.490;2022-09-01T15:00:07;23.30;52.30
51661;DHT22;37741;49.748;8.490;2022-09-01T15:02:39;23.40;52.30
51661;DHT22;37741;49.748;8.490;2022-09-01T15:05:06;23.40;52.20
51661;DHT22;37741;49.748;8.490;2022-09-01T15:07:31;23.40;52.10
51661;DHT22;37741;49.748;8.490;2022-09-01T15:09:57;23.50;52.10
51661;DHT22;37741;49.748;8.490;2022-09-01T15:12:25;23.50;52.20
51661;DHT22;37741;49.748;8.490;2022-09-01T15:14:55;23.50;51.90
51661;DHT22;37741;49.748;8.490;2022-09-01T15:17:21;23.50;51.90
51661;DHT22;37741;49.748;8.490;2022-09-01T15:19:46;23.50;51.80
51661;DHT22;37741;49.748;8.490;2022-09-01T15:22:12;23.60;51.90
51661;DHT22;37741;49.748;8.490;2022-09-01T15:24:38;23.60;51.60
51661;DHT22;37741;49.748;8.490;2022-09-01T15:27:04;23.70;51.40
51661;DHT22;37741;49.748;8.490;2022-09-01T15:29:31;23.80;51.20
51661;DHT22;37741;49.748;8.490;2022-09-01T15:31:58;23.80;50.80
51661;DHT22;37741;49.748;8.490;2022-09-01T15:34:25;23.90;50.50
51661;DHT22;37741;49.748;8.490;2022-09-01T15:36:50;24.00;50.30
51661;DHT22;37741;49.748;8.490;2022-09-01T15:39:16;24.00;49.90
51661;DHT22;37741;49.748;8.490;2022-09-01T15:41:42;24.10;50.30
51661;DHT22;37741;49.748;8.490;2022-09-01T15:46:46;24.20;49.70
51661;DHT22;37741;49.748;8.490;2022-09-01T15:49:12;24.40;49.40
51661;DHT22;37741;49.748;8.490;2022-09-01T15:51:42;24.40;49.00
51661;DHT22;37741;49.748;8.490;2022-09-01T15:54:11;24.50;48.50
51661;DHT22;37741;49.748;8.490;2022-09-01T15:56:37;24.50;48.90
51661;DHT22;37741;49.748;8.490;2022-09-01T15:59:04;24.50;48.50
51661;DHT22;37741;49.748;8.490;2022-09-01T16:01:33;24.50;48.30
51661;DHT22;37741;49.748;8.490;2022-09-01T16:04:01;24.60;48.90
51661;DHT22;37741;49.748;8.490;2022-09-01T16:06:27;24.60;48.90
51661;DHT22;37741;49.748;8.490;2022-09-01T16:08:53;24.60;48.20
51661;DHT22;37741;49.748;8.490;2022-09-01T16:11:23;24.60;47.80
51661;DHT22;37741;49.748;8.490;2022-09-01T16:13:50;24.70;48.00
51661;DHT22;37741;49.748;8.490;2022-09-01T16:24:27;24.80;48.30
51661;DHT22;37741;49.748;8.490;2022-09-01T16:26:55;24.80;48.30
51661;DHT22;37741;49.748;8.490;2022-09-01T16:31:58;24.80;48.20
51661;DHT22;37741;49.748;8.490;2022-09-01T16:34:24;24.90;48.40
51661;DHT22;37741;49.748;8.490;2022-09-01T16:52:28;25.00;48.00
51661;DHT22;37741;49.748;8.490;2022-09-01T17:03:51;25.00;48.10
51661;DHT22;37741;49.748;8.490;2022-09-01T17:06:35;25.00;48.20
51661;DHT22;37741;49.748;8.490;2022-09-01T17:12:24;25.00;48.10
51661;DHT22;37741;49.748;8.490;2022-09-01T17:14:58;25.00;48.20
51661;DHT22;37741;49.748;8.490;2022-09-01T17:17:40;25.00;48.10
51661;DHT22;37741;49.748;8.490;2022-09-01T17:20:08;25.00;48.10
51661;DHT22;37741;49.748;8.490;2022-09-01T17:22:36;25.00;48.10
51661;DHT22;37741;49.748;8.490;2022-09-01T17:25:08;25.00;48.20
51661;DHT22;37741;49.748;8.490;2022-09-01T17:27:36;25.00;48.30
51661;DHT22;37741;49.748;8.490;2022-09-01T17:30:04;24.90;48.10